Portada
METAR-TAF:

METAR-TAF

Aeroports :

Miri, Malàisia

latitud: 04-20N, longitud: 113-59E, altitud: 17 m

Observació

L'informe es va fer fa 40 minuts, a les 16:00 UTC
Vent calma
Temperatura 24°C
Humitat 94%
Pressió 1012 hPa
Visibilitat 10 km o més
Núvols disperses a una alçada de 1400 ft
Cel ennuvolat a una alçada de 15000 ft

METAR: WBGR 271600Z 00000KT 9999 SCT014 BKN150 24/23 Q1012

Hora: 00:40 (16:40 UTC)

Pronòstic

L'informe es va fer fa 5 hores i 40 minuts, a les 11:00 UTC
Pronòstic vàlid del 27 a les 12 UTC al 28 a les 12 UTC
Vent 3 kt amb direcció variable
Visibilitat 10 km o més
Núvols disperses a una alçada de 1600 ft
Temporalment
l' 27 a les 12 UTC al 27 a les 16 UTC
Visibilitat: 4000 m
Escasses núvols a una alçada de 1500 ft, Cumulonimbus.
tempesta, pluja

TAF: WBGR 271100Z 2712/2812 VRB03KT 9999 SCT016 TEMPO 2712/2716 4000 TSRA FEW015CB

Observacions i pronòstics meteorològics de més de 4000 aeroports (METAR i TAF).

Les estacions disponibles són els punts grocs i vermells al mapa.

Posi el ratolí al punt desitjat per veure el nom de l'estació.

Feu clic per veure les observacions i els pronòstics meteorològics.

Per canviar el mapa: feu clic els botons verds amb una creu de color negre per apropar; al botó verd amb un guió per allunyar la imatge; o en les fletxes verdes per a mapes adjacents.


METAR-TAF: